Time;durP1;ratioP1;P1;durP2;ratioP2;P2;SDS_P1;SDS_P2;PMS_P1;PMS_P2;Temp;Humidity;BMP_temperature;BMP_pressure;BME280_temperature;BME280_humidity;BME280_pressure;Samples;Min_cycle;Max_cycle;Signal;HPM_P1;HPM_P2
2024/01/20 00:00:29;;;;;;;29.48;16.75;;;0.50;99.90;;;;;;5072491;28;20552;-57
2024/01/20 00:02:55;;;;;;;32.55;18.50;;;-0.10;99.90;;;;;;5071855;28;20036;-54
2024/01/20 00:05:20;;;;;;;30.55;18.30;;;-0.10;99.90;;;;;;5072388;28;20396;-56
2024/01/20 00:07:46;;;;;;;26.38;17.70;;;0.30;99.90;;;;;;5072804;28;20476;-54
2024/01/20 00:10:12;;;;;;;32.85;17.40;;;0.60;99.90;;;;;;5072447;28;20043;-57
2024/01/20 00:12:39;;;;;;;35.40;18.60;;;0.60;99.90;;;;;;5072431;28;20101;-57
2024/01/20 00:15:09;;;;;;;32.17;17.50;;;-0.10;99.90;;;;;;5072458;28;20048;-57
2024/01/20 00:17:36;;;;;;;38.35;20.42;;;-0.10;99.90;;;;;;5071974;28;20040;-56
2024/01/20 00:20:03;;;;;;;34.50;16.83;;;-0.10;99.90;;;;;;5072014;28;20044;-55
2024/01/20 00:22:28;;;;;;;29.90;16.90;;;0.40;99.90;;;;;;5072176;28;20131;-56
2024/01/20 00:24:55;;;;;;;33.00;17.33;;;0.30;99.90;;;;;;5071744;28;20101;-56
2024/01/20 00:27:21;;;;;;;32.05;18.42;;;0.60;99.90;;;;;;5071976;28;20036;-55
2024/01/20 00:29:47;;;;;;;35.55;18.17;;;0.00;99.90;;;;;;5072312;28;20040;-56
2024/01/20 00:32:12;;;;;;;34.00;17.35;;;0.60;99.90;;;;;;5071273;28;20558;-55
2024/01/20 00:34:38;;;;;;;31.27;16.83;;;0.30;99.90;;;;;;5071197;28;20032;-54
2024/01/20 00:37:04;;;;;;;30.35;17.17;;;0.30;99.90;;;;;;5071978;28;20051;-55
2024/01/20 00:39:29;;;;;;;36.58;19.27;;;-0.30;99.90;;;;;;5071866;28;20052;-55
2024/01/20 00:41:55;;;;;;;31.35;18.20;;;0.40;99.90;;;;;;5070510;28;20070;-56
2024/01/20 00:44:21;;;;;;;32.78;18.48;;;-0.10;99.90;;;;;;5071852;28;20086;-56
2024/01/20 00:46:46;;;;;;;27.92;17.58;;;0.40;99.90;;;;;;5070454;28;20033;-56
2024/01/20 00:49:12;;;;;;;32.13;18.50;;;0.20;99.90;;;;;;5071488;28;20124;-55
2024/01/20 00:51:38;;;;;;;39.03;18.65;;;-0.30;99.90;;;;;;5071382;28;20037;-55
2024/01/20 00:54:03;;;;;;;39.10;19.60;;;-0.40;99.90;;;;;;5071909;28;20502;-53
2024/01/20 00:56:29;;;;;;;37.70;20.00;;;-0.10;99.90;;;;;;5071704;28;20046;-55
2024/01/20 00:58:54;;;;;;;35.72;19.20;;;-0.40;99.90;;;;;;5071413;28;20115;-56
2024/01/20 01:01:20;;;;;;;31.77;19.50;;;0.10;99.90;;;;;;5071604;28;20032;-55
2024/01/20 01:03:46;;;;;;;40.10;19.88;;;-0.40;99.90;;;;;;5070797;28;20037;-57
2024/01/20 01:06:12;;;;;;;33.05;19.17;;;-0.40;99.90;;;;;;5071341;28;20037;-55
2024/01/20 01:08:37;;;;;;;37.17;19.75;;;-0.30;99.90;;;;;;5071120;28;21096;-54
2024/01/20 01:11:03;;;;;;;38.38;20.05;;;-0.20;99.90;;;;;;5071357;28;20120;-55
2024/01/20 01:13:29;;;;;;;36.03;19.45;;;-0.40;99.90;;;;;;5070884;28;20491;-55
2024/01/20 01:15:55;;;;;;;37.80;21.15;;;0.30;99.90;;;;;;5071202;28;20074;-54
2024/01/20 01:18:20;;;;;;;43.40;20.90;;;0.30;99.90;;;;;;5071047;28;20372;-56
2024/01/20 01:20:46;;;;;;;40.65;22.35;;;0.10;99.90;;;;;;5071252;28;20071;-55
2024/01/20 01:23:12;;;;;;;39.67;23.27;;;-0.20;99.90;;;;;;5069906;28;20044;-55
2024/01/20 01:25:38;;;;;;;40.55;21.30;;;-0.20;99.90;;;;;;5071312;28;20047;-55
2024/01/20 01:28:04;;;;;;;38.13;21.67;;;0.10;99.90;;;;;;5071136;28;20434;-56
2024/01/20 01:30:30;;;;;;;45.70;22.55;;;0.30;99.90;;;;;;5068808;28;20051;-56
2024/01/20 01:32:55;;;;;;;49.72;23.08;;;0.20;99.90;;;;;;5070335;28;20036;-58
2024/01/20 01:35:21;;;;;;;38.30;20.92;;;-0.10;99.90;;;;;;5071015;28;20040;-55
2024/01/20 01:37:47;;;;;;;42.30;23.33;;;-0.40;99.90;;;;;;5070553;28;20055;-54
2024/01/20 01:40:13;;;;;;;40.90;21.30;;;-0.40;99.90;;;;;;5069720;28;20442;-56
2024/01/20 01:42:38;;;;;;;46.55;23.67;;;-0.10;99.90;;;;;;5070959;28;20430;-52
2024/01/20 01:45:04;;;;;;;44.10;23.23;;;-0.10;99.90;;;;;;5070969;28;20028;-56
2024/01/20 01:47:30;;;;;;;36.13;22.17;;;-0.20;99.90;;;;;;5070760;28;20056;-52
2024/01/20 01:49:56;;;;;;;45.80;23.13;;;-0.30;99.90;;;;;;5070026;28;20032;-55
2024/01/20 01:52:23;;;;;;;44.15;24.33;;;-0.20;99.90;;;;;;5068903;28;20036;-56
2024/01/20 01:54:50;;;;;;;37.30;21.58;;;0.40;99.90;;;;;;5070414;28;20036;-55
2024/01/20 01:57:17;;;;;;;37.95;21.42;;;0.00;99.90;;;;;;5070121;28;20076;-55
2024/01/20 01:59:44;;;;;;;38.42;22.48;;;0.30;99.90;;;;;;5070568;28;20035;-56
2024/01/20 02:02:10;;;;;;;40.22;23.05;;;0.10;99.90;;;;;;5069997;28;20044;-56
2024/01/20 02:04:36;;;;;;;43.20;23.85;;;0.20;99.90;;;;;;5070511;28;20407;-54
2024/01/20 02:07:02;;;;;;;36.58;20.92;;;0.10;99.90;;;;;;5070542;28;20036;-57
2024/01/20 02:09:29;;;;;;;40.88;20.25;;;0.00;99.90;;;;;;5086149;28;20040;-54
2024/01/20 02:11:55;;;;;;;37.42;21.05;;;0.20;99.90;;;;;;5070570;28;20499;-55
2024/01/20 02:14:22;;;;;;;42.65;22.70;;;-0.50;99.90;;;;;;5070586;28;20151;-53
2024/01/20 02:16:47;;;;;;;40.25;20.92;;;-0.30;99.90;;;;;;5070525;28;20036;-55
2024/01/20 02:19:13;;;;;;;45.60;23.58;;;0.00;99.90;;;;;;5070619;28;20047;-56
2024/01/20 02:21:39;;;;;;;47.05;22.73;;;-0.60;99.90;;;;;;5070571;28;20041;-53
2024/01/20 02:24:08;;;;;;;42.22;23.48;;;0.00;99.90;;;;;;5070213;28;20032;-55
2024/01/20 02:26:34;;;;;;;42.55;22.90;;;-0.60;99.90;;;;;;5070568;28;20067;-55
2024/01/20 02:29:00;;;;;;;40.60;22.95;;;0.00;99.90;;;;;;5070297;28;20024;-55
2024/01/20 02:31:26;;;;;;;44.17;21.83;;;-0.60;99.90;;;;;;5070202;28;20048;-54
2024/01/20 02:33:51;;;;;;;43.30;22.52;;;-0.10;99.90;;;;;;5070021;28;20040;-55
2024/01/20 02:36:17;;;;;;;45.25;22.55;;;-0.60;99.90;;;;;;5070619;28;20036;-55
2024/01/20 02:38:42;;;;;;;41.08;21.85;;;-0.10;99.90;;;;;;5070288;28;20060;-54
2024/01/20 02:41:08;;;;;;;40.45;20.60;;;-0.60;99.90;;;;;;5070406;28;20036;-54
2024/01/20 02:43:34;;;;;;;41.67;22.48;;;-0.70;99.90;;;;;;5070351;28;20090;-54
2024/01/20 02:45:59;;;;;;;46.08;25.13;;;-0.80;99.90;;;;;;5070078;28;20055;-54
2024/01/20 02:48:25;;;;;;;43.15;22.15;;;-0.60;99.90;;;;;;5070501;28;20475;-55
2024/01/20 02:50:51;;;;;;;40.53;20.80;;;-0.60;99.90;;;;;;5070371;28;20112;-56
2024/01/20 02:53:17;;;;;;;40.97;20.40;;;-0.20;99.90;;;;;;5070399;28;20043;-55
2024/01/20 02:55:42;;;;;;;45.28;24.65;;;-0.20;99.90;;;;;;5070247;28;20476;-55
2024/01/20 02:58:08;;;;;;;41.10;22.52;;;-0.70;99.90;;;;;;5070208;28;20032;-54
2024/01/20 03:00:34;;;;;;;45.20;23.65;;;-0.70;99.90;;;;;;5070119;28;20075;-55
2024/01/20 03:02:59;;;;;;;43.28;23.08;;;-0.60;99.90;;;;;;5069553;28;20128;-56
2024/01/20 03:05:25;;;;;;;43.60;23.08;;;-0.30;99.90;;;;;;5070479;28;20123;-54
2024/01/20 03:07:51;;;;;;;45.25;22.08;;;-0.80;99.90;;;;;;5070083;28;20071;-55
2024/01/20 03:10:16;;;;;;;45.38;21.20;;;-0.40;99.90;;;;;;5073649;28;20036;-54
2024/01/20 03:12:42;;;;;;;40.20;21.40;;;-0.30;99.90;;;;;;5073567;28;20503;-55
2024/01/20 03:15:08;;;;;;;47.13;22.20;;;-0.40;99.90;;;;;;5073490;28;20071;-56
2024/01/20 03:17:34;;;;;;;47.50;21.25;;;-0.90;99.90;;;;;;5073793;28;20097;-55
2024/01/20 03:20:00;;;;;;;45.97;21.70;;;-0.90;99.90;;;;;;5073641;28;20048;-56
2024/01/20 03:22:26;;;;;;;41.72;20.42;;;-0.50;99.90;;;;;;5073448;28;20044;-55
2024/01/20 03:24:51;;;;;;;50.28;23.80;;;-0.80;99.90;;;;;;5073545;28;20044;-53
2024/01/20 03:27:18;;;;;;;44.78;23.88;;;0.40;99.90;;;;;;5073825;28;20375;-57
2024/01/20 03:29:43;;;;;;;37.05;17.58;;;-0.90;99.90;;;;;;5073312;28;20483;-54
2024/01/20 03:32:10;;;;;;;46.10;22.08;;;-0.30;99.90;;;;;;5073161;28;20041;-56
2024/01/20 03:34:36;;;;;;;48.72;21.45;;;-0.40;99.90;;;;;;5073472;28;20036;-54
2024/01/20 03:37:02;;;;;;;51.40;23.20;;;-0.70;99.90;;;;;;5073232;28;20040;-55
2024/01/20 03:39:28;;;;;;;45.78;21.77;;;-0.50;99.90;;;;;;5073264;28;20044;-55
2024/01/20 03:41:53;;;;;;;58.50;24.73;;;-0.70;99.90;;;;;;5073036;28;20040;-55
2024/01/20 03:44:19;;;;;;;59.08;25.52;;;-0.10;99.90;;;;;;5073060;28;20395;-56
2024/01/20 03:46:45;;;;;;;48.80;24.30;;;-0.80;99.90;;;;;;5073093;28;20029;-53
2024/01/20 03:49:10;;;;;;;56.33;24.38;;;-0.80;99.90;;;;;;5073133;28;20141;-53
2024/01/20 03:51:36;;;;;;;56.47;23.40;;;-0.70;99.90;;;;;;5072983;28;20368;-56
2024/01/20 03:54:04;;;;;;;56.13;24.85;;;-0.70;99.90;;;;;;5072990;28;20137;-55
2024/01/20 03:56:30;;;;;;;53.80;23.10;;;-0.70;99.90;;;;;;5073424;28;20075;-51
2024/01/20 03:58:55;;;;;;;53.65;23.95;;;-0.80;99.90;;;;;;5072764;28;20044;-54
2024/01/20 04:01:21;;;;;;;57.17;23.73;;;-0.30;99.90;;;;;;5072705;28;20467;-55
2024/01/20 04:03:47;;;;;;;54.33;23.13;;;-0.20;99.90;;;;;;5072338;28;20494;-55
2024/01/20 04:06:12;;;;;;;59.78;24.67;;;-0.40;99.90;;;;;;5072877;28;20024;-54
2024/01/20 04:08:38;;;;;;;54.50;22.70;;;-0.90;99.90;;;;;;5072730;28;20033;-55
2024/01/20 04:11:04;;;;;;;59.08;24.48;;;-0.90;99.90;;;;;;5072544;28;20036;-56
2024/01/20 04:13:29;;;;;;;54.63;21.88;;;-0.40;99.90;;;;;;5072559;28;20136;-56
2024/01/20 04:15:55;;;;;;;60.13;23.70;;;-1.00;99.90;;;;;;5072211;28;20044;-56
2024/01/20 04:18:21;;;;;;;57.55;25.10;;;-0.40;99.90;;;;;;5072358;28;20041;-52
2024/01/20 04:20:46;;;;;;;61.60;23.75;;;-0.90;99.90;;;;;;5070108;28;20419;-54
2024/01/20 04:23:12;;;;;;;60.97;23.83;;;-0.40;99.90;;;;;;5071169;28;20458;-56
2024/01/20 04:25:38;;;;;;;59.58;23.65;;;-1.10;99.90;;;;;;5072111;28;20028;-56
2024/01/20 04:28:04;;;;;;;55.92;22.63;;;-0.50;99.90;;;;;;5072151;28;20032;-53
2024/01/20 04:30:29;;;;;;;56.47;20.08;;;-0.90;99.90;;;;;;5071969;28;20036;-56
2024/01/20 04:32:55;;;;;;;54.53;23.95;;;-1.10;99.90;;;;;;5071905;28;20033;-55
2024/01/20 04:35:21;;;;;;;59.25;22.58;;;-1.00;99.90;;;;;;5072160;28;20447;-55
2024/01/20 04:37:46;;;;;;;55.83;23.08;;;-0.60;99.90;;;;;;5071894;28;20047;-54
2024/01/20 04:40:12;;;;;;;62.33;24.55;;;-0.40;99.90;;;;;;5071981;28;20032;-56
2024/01/20 04:42:38;;;;;;;60.92;24.30;;;-0.90;99.90;;;;;;5071540;28;20036;-52
2024/01/20 04:45:04;;;;;;;53.88;21.80;;;-0.40;99.90;;;;;;5071678;28;20035;-54
2024/01/20 04:47:32;;;;;;;58.05;23.17;;;-0.60;99.90;;;;;;5071826;28;20040;-56
2024/01/20 04:49:58;;;;;;;58.05;24.10;;;-0.40;99.90;;;;;;5070421;28;20130;-54
2024/01/20 04:52:23;;;;;;;52.10;22.35;;;-1.00;99.90;;;;;;5071774;28;20076;-55
2024/01/20 04:54:49;;;;;;;59.22;24.45;;;-0.60;99.90;;;;;;5071689;28;20067;-54
2024/01/20 04:57:15;;;;;;;51.30;21.38;;;-1.00;99.90;;;;;;5071617;28;20707;-54
2024/01/20 04:59:40;;;;;;;63.03;24.05;;;-0.50;99.90;;;;;;5070166;28;20033;-55
2024/01/20 05:02:06;;;;;;;50.97;22.50;;;-1.00;99.90;;;;;;5071077;28;20391;-54
2024/01/20 05:04:32;;;;;;;59.53;24.63;;;-1.10;99.90;;;;;;5071321;28;20119;-54
2024/01/20 05:06:57;;;;;;;60.97;22.45;;;-0.50;99.90;;;;;;5071576;28;20098;-55
2024/01/20 05:09:23;;;;;;;55.90;22.67;;;-0.90;99.90;;;;;;5070966;28;20430;-55
2024/01/20 05:11:49;;;;;;;56.78;22.73;;;-1.10;99.90;;;;;;5069695;28;20052;-56
2024/01/20 05:14:14;;;;;;;60.22;23.27;;;-0.90;99.90;;;;;;5071243;28;20114;-55
2024/01/20 05:16:40;;;;;;;54.22;24.23;;;-0.50;99.90;;;;;;5071233;28;20085;-53
2024/01/20 05:19:06;;;;;;;54.90;22.50;;;-0.90;99.90;;;;;;5071031;28;20040;-54
2024/01/20 05:21:31;;;;;;;60.60;22.35;;;-0.90;99.90;;;;;;5069748;28;20044;-56
2024/01/20 05:23:57;;;;;;;61.70;24.38;;;-0.50;99.90;;;;;;5070879;28;20036;-53
2024/01/20 05:26:23;;;;;;;64.20;22.80;;;-0.80;99.90;;;;;;5070696;28;20040;-55
2024/01/20 05:28:49;;;;;;;53.38;21.42;;;-1.10;99.90;;;;;;5070533;28;20029;-54
2024/01/20 05:31:15;;;;;;;51.63;23.13;;;-0.60;99.90;;;;;;5070532;28;20127;-56
2024/01/20 05:33:40;;;;;;;54.38;21.48;;;-0.50;99.90;;;;;;5070311;28;20059;-55
2024/01/20 05:36:10;;;;;;;64.50;24.08;;;-0.50;99.90;;;;;;5070929;28;20032;-54
2024/01/20 05:38:35;;;;;;;52.33;22.30;;;-1.10;99.90;;;;;;5070599;28;20099;-55
2024/01/20 05:41:01;;;;;;;56.78;22.17;;;-1.10;99.90;;;;;;5071274;28;20052;-56
2024/01/20 05:43:26;;;;;;;62.85;22.85;;;-1.00;99.90;;;;;;5070597;28;20479;-55
2024/01/20 05:45:52;;;;;;;52.00;21.10;;;-0.50;99.90;;;;;;5070636;28;20044;-54
2024/01/20 05:48:18;;;;;;;60.22;24.17;;;-0.60;99.90;;;;;;5070354;28;20123;-55
2024/01/20 05:50:43;;;;;;;56.38;22.67;;;-1.00;99.90;;;;;;5069508;28;20039;-54
2024/01/20 05:53:09;;;;;;;57.90;21.85;;;-1.00;99.90;;;;;;5070663;28;20659;-55
2024/01/20 05:55:35;;;;;;;54.15;21.27;;;-0.60;99.90;;;;;;5070482;28;20430;-56
2024/01/20 05:58:00;;;;;;;55.80;19.85;;;-0.60;99.90;;;;;;5070494;28;20502;-55
2024/01/20 06:00:26;;;;;;;59.15;20.77;;;-0.40;99.90;;;;;;5070596;28;20387;-53
2024/01/20 06:02:52;;;;;;;53.03;21.88;;;-0.50;99.90;;;;;;5070059;28;20036;-55
2024/01/20 06:05:17;;;;;;;58.33;22.42;;;-1.10;99.90;;;;;;5070694;28;20075;-55
2024/01/20 06:07:43;;;;;;;52.58;20.05;;;-0.50;99.90;;;;;;5069327;28;20480;-54
2024/01/20 06:10:09;;;;;;;51.28;21.67;;;-0.50;99.90;;;;;;5070390;28;20040;-55
2024/01/20 06:12:34;;;;;;;53.83;22.50;;;-0.50;99.90;;;;;;5070050;28;20048;-54
2024/01/20 06:15:00;;;;;;;52.35;21.75;;;-0.60;99.90;;;;;;5070841;28;20403;-53
2024/01/20 06:17:26;;;;;;;57.17;20.25;;;-0.60;99.90;;;;;;5070511;28;20411;-56
2024/01/20 06:19:53;;;;;;;52.13;22.40;;;-0.90;99.90;;;;;;5069386;28;20502;-53
2024/01/20 06:22:18;;;;;;;52.63;20.10;;;-1.10;99.90;;;;;;5070318;28;20934;-53
2024/01/20 06:24:44;;;;;;;56.85;20.85;;;-0.50;99.90;;;;;;5070511;28;20036;-53
2024/01/20 06:27:09;;;;;;;49.38;20.13;;;-0.60;99.90;;;;;;5070233;28;20068;-56
2024/01/20 06:29:42;;;;;;;56.42;21.55;;;-0.80;99.90;;;;;;5070303;28;20418;-54
2024/01/20 06:32:08;;;;;;;54.33;21.02;;;-0.90;99.90;;;;;;5069432;28;20036;-56
2024/01/20 06:34:33;;;;;;;52.08;20.35;;;-0.90;99.90;;;;;;5070420;28;20131;-56
2024/01/20 06:36:59;;;;;;;50.92;21.45;;;-0.40;99.90;;;;;;5070140;28;20040;-55
2024/01/20 06:39:25;;;;;;;52.42;20.17;;;-0.60;99.90;;;;;;5070265;28;20479;-53
2024/01/20 06:41:50;;;;;;;54.28;19.10;;;-1.10;99.90;;;;;;5068680;28;20403;-55
2024/01/20 06:44:16;;;;;;;51.13;20.42;;;-0.50;99.90;;;;;;5072359;28;20472;-54
2024/01/20 06:46:42;;;;;;;52.80;21.33;;;-0.90;99.90;;;;;;5074048;28;20044;-54
2024/01/20 06:49:08;;;;;;;46.38;17.42;;;-0.50;99.90;;;;;;5074075;28;20040;-55
2024/01/20 06:51:34;;;;;;;52.83;18.65;;;-1.10;99.90;;;;;;5073809;28;20040;-54
2024/01/20 06:54:00;;;;;;;58.13;22.00;;;-0.50;99.90;;;;;;5073657;28;20521;-55
2024/01/20 06:56:26;;;;;;;48.08;19.58;;;-0.60;99.90;;;;;;5072461;28;20044;-55
2024/01/20 06:58:54;;;;;;;55.15;21.40;;;-0.40;99.90;;;;;;5073679;28;20119;-54
2024/01/20 07:01:20;;;;;;;56.17;19.77;;;-0.40;99.90;;;;;;5073860;28;20503;-55
2024/01/20 07:03:46;;;;;;;54.80;21.17;;;-1.00;99.90;;;;;;5072902;28;20129;-55
2024/01/20 07:06:13;;;;;;;53.42;20.30;;;-0.90;99.90;;;;;;5073694;28;20041;-55
2024/01/20 07:08:39;;;;;;;56.38;21.38;;;-0.80;99.90;;;;;;5073539;28;20145;-53
2024/01/20 07:11:09;;;;;;;57.38;22.00;;;-0.40;99.90;;;;;;5073645;28;20087;-54
2024/01/20 07:13:37;;;;;;;53.78;21.48;;;-0.80;99.90;;;;;;5072949;28;20420;-53
2024/01/20 07:16:11;;;;;;;52.97;20.70;;;-1.10;99.90;;;;;;5073558;28;20517;-56
2024/01/20 07:18:37;;;;;;;60.17;23.05;;;-0.80;99.90;;;;;;5072203;28;20036;-54
2024/01/20 07:21:03;;;;;;;51.08;20.35;;;-0.90;99.90;;;;;;5071521;28;20047;-55
2024/01/20 07:23:30;;;;;;;52.80;21.90;;;-0.60;99.90;;;;;;5073039;28;20049;-55
2024/01/20 07:25:56;;;;;;;52.17;20.15;;;-0.90;99.90;;;;;;5073394;28;20085;-54
2024/01/20 07:28:21;;;;;;;49.17;19.55;;;-0.50;99.90;;;;;;5073154;28;20037;-56
2024/01/20 07:30:47;;;;;;;55.15;21.73;;;-1.00;99.90;;;;;;5070249;28;20036;-54
2024/01/20 07:33:13;;;;;;;51.55;21.65;;;-0.60;99.90;;;;;;5072819;28;20072;-55
2024/01/20 07:35:38;;;;;;;54.30;21.38;;;-0.80;99.90;;;;;;5072728;28;20459;-54
2024/01/20 07:38:04;;;;;;;59.00;23.10;;;-0.60;99.90;;;;;;5072964;28;20036;-54
2024/01/20 07:40:30;;;;;;;51.47;20.92;;;-0.60;99.90;;;;;;5072762;28;20059;-52
2024/01/20 07:42:56;;;;;;;47.42;19.52;;;-0.40;99.90;;;;;;5073059;28;20128;-54
2024/01/20 07:45:22;;;;;;;51.30;20.08;;;-1.00;99.90;;;;;;5073024;28;20115;-55
2024/01/20 07:47:48;;;;;;;50.97;20.60;;;-0.90;99.90;;;;;;5071372;28;20033;-55
2024/01/20 07:50:14;;;;;;;54.75;20.33;;;-1.00;99.90;;;;;;5073345;28;20116;-53
2024/01/20 07:52:40;;;;;;;49.35;21.02;;;-0.90;99.90;;;;;;5073267;28;20076;-55
2024/01/20 07:55:06;;;;;;;49.88;19.38;;;-0.30;99.90;;;;;;5072066;28;20495;-52
2024/01/20 07:57:31;;;;;;;51.97;19.05;;;-0.70;99.90;;;;;;5072701;28;20033;-56
2024/01/20 07:59:57;;;;;;;47.83;18.95;;;-0.70;99.90;;;;;;5072538;28;20044;-55
2024/01/20 08:02:23;;;;;;;50.00;19.25;;;-0.80;99.90;;;;;;5072270;28;20041;-52
2024/01/20 08:04:48;;;;;;;49.47;18.88;;;-0.50;99.90;;;;;;5065069;28;20116;-54
2024/01/20 08:07:14;;;;;;;52.70;20.17;;;-0.50;99.90;;;;;;5072505;28;20036;-56
2024/01/20 08:09:40;;;;;;;53.53;20.98;;;-0.10;99.90;;;;;;5070946;28;20384;-53
2024/01/20 08:12:05;;;;;;;56.38;19.75;;;-0.60;99.90;;;;;;5071202;28;20106;-56
2024/01/20 08:14:31;;;;;;;45.40;19.27;;;0.10;99.90;;;;;;5072237;28;20046;-56
2024/01/20 08:16:57;;;;;;;51.33;21.10;;;-0.40;99.90;;;;;;5070070;28;20067;-56
2024/01/20 08:19:22;;;;;;;54.20;20.45;;;-0.40;99.90;;;;;;5067994;28;20127;-50
2024/01/20 08:21:48;;;;;;;50.38;20.08;;;-0.40;99.90;;;;;;5065376;28;20082;-51
2024/01/20 08:24:14;;;;;;;48.95;18.75;;;-0.20;99.90;;;;;;5069780;28;20110;-49
2024/01/20 08:26:41;;;;;;;55.92;19.38;;;0.10;99.90;;;;;;5071443;28;20037;-52
2024/01/20 08:29:07;;;;;;;52.90;18.83;;;0.30;99.90;;;;;;5071366;28;20135;-54
2024/01/20 08:31:33;;;;;;;47.83;18.77;;;0.20;99.90;;;;;;5067955;28;20119;-52
2024/01/20 08:33:58;;;;;;;53.03;18.63;;;0.00;99.90;;;;;;5071711;28;20052;-49
2024/01/20 08:36:24;;;;;;;44.50;18.60;;;0.20;99.90;;;;;;5070922;28;20045;-48
2024/01/20 08:38:50;;;;;;;45.30;18.10;;;0.00;99.90;;;;;;5070594;28;20124;-52
2024/01/20 08:41:16;;;;;;;41.97;17.77;;;0.50;99.90;;;;;;5070912;28;20048;-50
2024/01/20 08:43:43;;;;;;;49.33;19.42;;;0.60;99.90;;;;;;5070848;28;20127;-52
2024/01/20 08:46:09;;;;;;;42.00;18.90;;;0.20;99.90;;;;;;5070881;28;20036;-51
2024/01/20 08:48:35;;;;;;;48.72;21.05;;;0.10;99.90;;;;;;5069702;28;20437;-55
2024/01/20 08:51:00;;;;;;;40.67;17.20;;;0.60;99.90;;;;;;5068332;28;20040;-54
2024/01/20 08:53:30;;;;;;;44.45;17.92;;;0.60;99.90;;;;;;5070277;28;20454;-50
2024/01/20 08:55:55;;;;;;;48.90;19.80;;;0.30;99.90;;;;;;5074187;28;20041;-53
2024/01/20 08:58:21;;;;;;;49.22;18.80;;;0.60;99.90;;;;;;5073075;28;20131;-51
2024/01/20 09:00:47;;;;;;;48.03;19.00;;;0.30;99.90;;;;;;5073688;28;20107;-49
2024/01/20 09:03:12;;;;;;;44.38;18.10;;;0.20;99.90;;;;;;5059185;28;20479;-52
2024/01/20 09:05:38;;;;;;;43.33;17.88;;;0.20;99.90;;;;;;5068957;28;20399;-54
2024/01/20 09:08:05;;;;;;;47.28;16.88;;;0.70;99.90;;;;;;5069940;28;20466;-53
2024/01/20 09:10:31;;;;;;;41.25;16.67;;;0.50;99.90;;;;;;5070311;28;20483;-50
2024/01/20 09:12:56;;;;;;;43.72;16.75;;;0.40;99.90;;;;;;5070014;28;20101;-50
2024/01/20 09:15:22;;;;;;;46.38;17.52;;;0.20;99.90;;;;;;5070236;28;20580;-52
2024/01/20 09:17:48;;;;;;;52.25;18.65;;;0.30;99.90;;;;;;5069518;28;20067;-50
2024/01/20 09:20:13;;;;;;;43.42;17.58;;;0.80;99.90;;;;;;5062466;28;20036;-48
2024/01/20 09:22:39;;;;;;;42.72;19.15;;;0.80;99.90;;;;;;5070840;28;20071;-51
2024/01/20 09:25:05;;;;;;;37.03;15.95;;;0.30;99.90;;;;;;5069886;28;20293;-52
2024/01/20 09:27:31;;;;;;;43.70;17.23;;;0.80;99.90;;;;;;5068560;28;20052;-53
2024/01/20 09:29:57;;;;;;;40.05;16.67;;;0.30;99.90;;;;;;5069856;28;20044;-50
2024/01/20 09:32:22;;;;;;;42.20;17.40;;;0.70;99.90;;;;;;5068417;28;20139;-53
2024/01/20 09:34:48;;;;;;;46.97;18.45;;;0.40;99.90;;;;;;5069820;28;20337;-52
2024/01/20 09:37:14;;;;;;;44.00;19.35;;;0.70;99.90;;;;;;5069271;28;20045;-51
2024/01/20 09:39:39;;;;;;;43.47;17.15;;;0.90;99.90;;;;;;5068924;28;20483;-50
2024/01/20 09:42:05;;;;;;;49.60;19.23;;;0.80;99.90;;;;;;5069263;28;20041;-53
2024/01/20 09:44:31;;;;;;;44.40;17.00;;;0.80;99.90;;;;;;5069083;28;20036;-52
2024/01/20 09:46:57;;;;;;;43.28;19.70;;;0.60;99.90;;;;;;5069930;28;20123;-52
2024/01/20 09:49:23;;;;;;;43.20;16.88;;;0.50;99.90;;;;;;5069322;28;20213;-55
2024/01/20 09:51:52;;;;;;;43.22;17.70;;;1.00;99.90;;;;;;5069028;28;20035;-53
2024/01/20 09:54:21;;;;;;;47.45;17.55;;;1.00;99.90;;;;;;5067430;28;20067;-47
2024/01/20 09:56:47;;;;;;;38.42;15.55;;;1.00;99.90;;;;;;5069488;28;20048;-50
2024/01/20 09:59:15;;;;;;;47.85;17.60;;;0.70;99.90;;;;;;5069501;28;20044;-51
2024/01/20 10:01:41;;;;;;;43.58;18.35;;;0.90;99.90;;;;;;5069136;28;20045;-53
2024/01/20 10:04:08;;;;;;;38.03;15.55;;;1.00;99.90;;;;;;5069024;28;20032;-51
2024/01/20 10:06:34;;;;;;;43.67;17.02;;;0.80;99.90;;;;;;5069356;28;20039;-53
2024/01/20 10:09:00;;;;;;;40.50;17.27;;;0.70;99.90;;;;;;5069580;28;20484;-52
2024/01/20 10:11:26;;;;;;;41.20;17.17;;;0.80;99.90;;;;;;5069087;28;20051;-50
2024/01/20 10:13:52;;;;;;;39.50;16.92;;;0.90;99.90;;;;;;5067983;28;20149;-51
2024/01/20 10:16:19;;;;;;;36.13;15.07;;;0.80;99.90;;;;;;5069341;28;20063;-51
2024/01/20 10:18:45;;;;;;;40.28;17.00;;;0.80;99.90;;;;;;5072324;28;20040;-51
2024/01/20 10:21:11;;;;;;;34.20;15.82;;;1.30;99.90;;;;;;5073675;28;20124;-52
2024/01/20 10:23:39;;;;;;;38.22;16.67;;;0.90;99.90;;;;;;5073223;28;20571;-48
2024/01/20 10:26:09;;;;;;;42.17;17.55;;;1.10;99.90;;;;;;5073223;28;20040;-55
2024/01/20 10:28:35;;;;;;;45.47;16.65;;;1.00;99.90;;;;;;5073207;28;20068;-52
2024/01/20 10:31:10;;;;;;;41.13;17.25;;;1.50;99.90;;;;;;5072828;28;20070;-52
2024/01/20 10:33:35;;;;;;;40.40;17.40;;;1.50;99.90;;;;;;5070192;28;20040;-53
2024/01/20 10:36:03;;;;;;;37.65;17.00;;;1.50;99.90;;;;;;5073075;28;20107;-53
2024/01/20 10:38:32;;;;;;;40.08;17.70;;;1.10;99.90;;;;;;5072020;28;20067;-53
2024/01/20 10:40:58;;;;;;;42.25;18.13;;;1.50;99.90;;;;;;5073385;28;20036;-55
2024/01/20 10:43:28;;;;;;;45.13;19.70;;;1.40;99.90;;;;;;5072821;28;20037;-51
2024/01/20 10:46:00;;;;;;;43.60;19.50;;;1.40;99.90;;;;;;5071911;28;20040;-55
2024/01/20 10:48:30;;;;;;;38.95;18.63;;;1.10;99.90;;;;;;5072092;28;20502;-52
2024/01/20 10:51:03;;;;;;;41.20;18.30;;;1.40;99.90;;;;;;5072966;28;20032;-52
2024/01/20 10:53:29;;;;;;;42.83;17.98;;;1.10;99.90;;;;;;5071512;28;20041;-52
2024/01/20 10:55:55;;;;;;;48.20;20.17;;;1.50;99.90;;;;;;5072509;28;20036;-52
2024/01/20 10:58:30;;;;;;;42.47;19.15;;;1.50;99.90;;;;;;5072767;28;20040;-52
2024/01/20 11:00:56;;;;;;;41.45;18.10;;;1.50;99.90;;;;;;5071872;28;20448;-54
2024/01/20 11:03:22;;;;;;;48.38;18.83;;;1.50;99.90;;;;;;5072011;28;20111;-50
2024/01/20 11:05:48;;;;;;;43.03;18.50;;;1.10;99.90;;;;;;5072438;28;20087;-51
2024/01/20 11:08:22;;;;;;;49.58;17.45;;;1.10;99.90;;;;;;5070558;28;20036;-50
2024/01/20 11:10:47;;;;;;;46.55;20.15;;;1.10;99.90;;;;;;5072406;28;20032;-53
2024/01/20 11:13:15;;;;;;;36.10;17.23;;;1.30;99.90;;;;;;5071972;28;20059;-51
2024/01/20 11:15:40;;;;;;;42.22;18.55;;;1.50;99.90;;;;;;5069023;28;20433;-52
2024/01/20 11:18:19;;;;;;;44.05;18.25;;;1.20;99.90;;;;;;5072160;28;20126;-51
2024/01/20 11:21:00;;;;;;;45.17;19.85;;;1.40;99.90;;;;;;5070665;28;20047;-51
2024/01/20 11:23:26;;;;;;;40.13;19.00;;;1.60;99.90;;;;;;5071576;28;20072;-54
2024/01/20 11:25:53;;;;;;;37.13;17.02;;;1.60;99.90;;;;;;5067177;28;20033;-51
2024/01/20 11:28:29;;;;;;;40.65;17.48;;;1.50;99.90;;;;;;5068842;28;20036;-50
2024/01/20 11:30:55;;;;;;;48.10;19.52;;;1.30;99.90;;;;;;5061453;28;20028;-51
2024/01/20 11:33:21;;;;;;;40.67;17.58;;;1.20;99.90;;;;;;5066917;28;20101;-52
2024/01/20 11:35:47;;;;;;;40.65;19.05;;;1.30;99.90;;;;;;5067613;28;20045;-52
2024/01/20 11:38:15;;;;;;;40.33;17.33;;;1.40;99.90;;;;;;5068236;28;20052;-50
2024/01/20 11:40:40;;;;;;;44.25;18.42;;;1.40;99.90;;;;;;5065197;28;20091;-51
2024/01/20 11:43:07;;;;;;;45.63;18.38;;;1.60;99.90;;;;;;5064745;28;20068;-52
2024/01/20 11:45:33;;;;;;;43.83;18.52;;;1.40;99.90;;;;;;5063596;28;20048;-55
2024/01/20 11:47:59;;;;;;;42.90;18.25;;;1.60;99.90;;;;;;5062339;28;20040;-50
2024/01/20 11:50:25;;;;;;;41.30;18.23;;;1.40;99.90;;;;;;5065417;28;20036;-54
2024/01/20 11:52:51;;;;;;;43.63;16.58;;;1.80;99.90;;;;;;5067148;28;20067;-53
2024/01/20 11:55:17;;;;;;;42.10;17.88;;;1.80;99.90;;;;;;5065648;28;20459;-48
2024/01/20 11:57:43;;;;;;;43.53;18.92;;;1.80;99.90;;;;;;5064142;28;20048;-52
2024/01/20 12:00:11;;;;;;;40.10;18.33;;;1.70;99.90;;;;;;5063905;28;20438;-51
2024/01/20 12:02:37;;;;;;;41.28;18.83;;;1.60;99.90;;;;;;5060616;28;20082;-51
2024/01/20 12:05:03;;;;;;;40.95;19.35;;;1.60;99.90;;;;;;5068609;28;20032;-54
2024/01/20 12:07:29;;;;;;;44.05;19.27;;;1.90;99.90;;;;;;5067959;28;20392;-53
2024/01/20 12:09:56;;;;;;;36.03;16.65;;;1.90;99.90;;;;;;5066276;28;20032;-52
2024/01/20 12:12:22;;;;;;;43.80;18.60;;;1.90;99.90;;;;;;5064377;28;20056;-54
2024/01/20 12:14:49;;;;;;;40.65;17.45;;;1.60;99.90;;;;;;5061697;28;20052;-53
2024/01/20 12:17:16;;;;;;;42.58;18.60;;;1.60;99.90;;;;;;5061443;28;20968;-51
2024/01/20 12:19:42;;;;;;;35.05;16.60;;;1.80;99.90;;;;;;5065755;28;20051;-53
2024/01/20 12:22:09;;;;;;;36.38;16.73;;;1.90;99.90;;;;;;5068240;28;20045;-54
2024/01/20 12:24:35;;;;;;;35.42;17.02;;;2.00;99.90;;;;;;5067411;28;20483;-54